Cape Lookout National Seasho, North Carolina
Current Conditions -  °F | °C
As of 9:58 PM on Friday 21 Nov 2014 (Local Time) from KMRH Reporting Station
Clear Clear  
Wind Chill: 30°   Ceiling: Unl
Heat Index: 36°   Visibility: 10mi
Dew Point: 24°   Wind: 7mph
Humidity: 62%   Direction: 30°NNE
Pressure: 30.54"   Gusts: NA
Location:  34.8465°N, 76.6069°W
Report Text: KMRH 220258Z AUTO 03006KT 10SM CLR 02/M04 A3054 RMK AO2 SLP343 T00221044 51010 TSNO
Loading
Personal Weather Stations






























Interactive Weather Map New forecast layout! Learn more

10-Day Weather Forecast

Advertisements
Track Severe Weather on mobile